createdAt,value
2018-02-08T00:01:25.310Z,22.13
2018-02-08T00:03:51.439Z,21.52
2018-02-08T00:06:17.539Z,21.33
2018-02-08T00:08:43.679Z,19.55
2018-02-08T00:11:09.812Z,22.23
2018-02-08T00:13:35.934Z,21.87
2018-02-08T00:16:02.040Z,21.50
2018-02-08T00:18:28.150Z,21.60
2018-02-08T00:20:55.033Z,21.23
2018-02-08T00:23:21.178Z,21.15
2018-02-08T00:25:47.290Z,21.48
2018-02-08T00:28:13.398Z,21.50
2018-02-08T00:30:40.493Z,23.55
2018-02-08T00:33:06.846Z,21.00
2018-02-08T00:35:33.173Z,20.90
2018-02-08T00:37:59.524Z,21.25
2018-02-08T00:40:26.587Z,22.27
2018-02-08T00:42:52.707Z,20.17
2018-02-08T00:45:18.878Z,22.67
2018-02-08T00:47:45.038Z,21.50
2018-02-08T00:50:11.180Z,20.98
2018-02-08T00:52:37.413Z,22.17
2018-02-08T00:55:04.442Z,22.00
2018-02-08T00:57:30.747Z,21.95
2018-02-08T00:59:57.151Z,21.58
2018-02-08T01:02:23.463Z,21.20
2018-02-08T01:04:49.815Z,20.60
2018-02-08T01:07:16.151Z,21.75
2018-02-08T01:09:42.491Z,22.55
2018-02-08T01:12:08.818Z,22.65
2018-02-08T01:14:35.222Z,23.52
2018-02-08T01:17:01.611Z,21.20
2018-02-08T01:19:27.980Z,22.65
2018-02-08T01:21:54.434Z,21.55
2018-02-08T01:24:20.823Z,21.95
2018-02-08T01:26:47.187Z,23.73
2018-02-08T01:29:13.527Z,21.75
2018-02-08T01:31:40.161Z,20.98
2018-02-08T01:34:06.578Z,21.83
2018-02-08T01:36:32.879Z,22.73
2018-02-08T01:38:59.307Z,20.70
2018-02-08T01:41:25.637Z,22.85
2018-02-08T01:43:51.992Z,20.17
2018-02-08T01:46:19.158Z,20.37
2018-02-08T01:48:45.604Z,21.25
2018-02-08T01:51:11.922Z,19.62
2018-02-08T01:53:38.510Z,20.85
2018-02-08T01:56:04.886Z,19.90
2018-02-08T01:58:31.096Z,23.60
2018-02-08T02:00:58.166Z,20.70
2018-02-08T02:03:24.291Z,20.62
2018-02-08T02:05:51.208Z,20.15
2018-02-08T02:08:17.345Z,19.05
2018-02-08T02:10:43.490Z,20.48
2018-02-08T02:13:09.724Z,18.80
2018-02-08T02:15:35.855Z,20.65
2018-02-08T02:18:05.461Z,19.50
2018-02-08T02:20:31.790Z,21.33
2018-02-08T02:22:58.024Z,20.77
2018-02-08T02:25:24.172Z,19.58
2018-02-08T02:27:50.345Z,20.45
2018-02-08T02:30:16.461Z,21.15
2018-02-08T02:32:42.636Z,21.12
2018-02-08T02:35:10.156Z,22.00
2018-02-08T02:37:36.291Z,20.67
2018-02-08T02:40:02.497Z,20.25
2018-02-08T02:42:28.771Z,20.50
2018-02-08T02:44:55.096Z,20.60
2018-02-08T02:47:22.049Z,21.33
2018-02-08T02:49:48.254Z,19.95
2018-02-08T02:52:14.499Z,19.85
2018-02-08T02:54:40.795Z,21.33
2018-02-08T02:57:07.665Z,21.40
2018-02-08T02:59:33.971Z,19.87
2018-02-08T03:02:00.242Z,19.75
2018-02-08T03:04:26.374Z,20.92
2018-02-08T03:06:52.659Z,19.83
2018-02-08T03:09:19.570Z,21.37
2018-02-08T03:11:45.980Z,21.83
2018-02-08T03:14:12.378Z,19.92
2018-02-08T03:16:38.697Z,20.92
2018-02-08T03:19:04.897Z,19.37
2018-02-08T03:21:31.908Z,20.42
2018-02-08T03:23:58.109Z,18.98
2018-02-08T03:26:25.559Z,18.83
2018-02-08T03:28:53.867Z,20.37
2018-02-08T03:31:20.309Z,20.55
2018-02-08T03:33:54.417Z,19.65
2018-02-08T03:36:24.109Z,20.15
2018-02-08T03:38:51.281Z,20.23
2018-02-08T03:41:18.043Z,22.17
2018-02-08T03:43:45.123Z,19.48
2018-02-08T03:46:11.324Z,20.02
2018-02-08T03:48:37.894Z,19.58
2018-02-08T03:51:04.415Z,18.60
2018-02-08T03:53:30.906Z,21.00
2018-02-08T03:55:57.743Z,20.20
2018-02-08T03:58:24.926Z,21.35
2018-02-08T04:00:51.092Z,18.42
2018-02-08T04:03:17.576Z,20.62
2018-02-08T04:05:46.996Z,19.83
2018-02-08T04:08:14.338Z,20.40
2018-02-08T04:10:41.490Z,20.25
2018-02-08T04:13:09.039Z,19.12
2018-02-08T04:15:35.360Z,20.15
2018-02-08T04:18:04.714Z,20.45
2018-02-08T04:20:31.101Z,19.12
2018-02-08T04:23:03.993Z,19.90
2018-02-08T04:25:30.475Z,20.00
2018-02-08T04:27:57.464Z,21.67
2018-02-08T04:30:23.859Z,21.45
2018-02-08T04:32:50.958Z,19.55
2018-02-08T04:35:17.876Z,19.70
2018-02-08T04:37:44.023Z,19.70
2018-02-08T04:40:22.590Z,18.25
2018-02-08T04:43:01.061Z,17.85
2018-02-08T04:45:40.118Z,22.00
2018-02-08T04:48:07.233Z,19.33
2018-02-08T04:50:37.299Z,20.23
2018-02-08T04:53:03.874Z,19.50
2018-02-08T04:55:30.133Z,20.95
2018-02-08T04:57:58.544Z,19.30
2018-02-08T05:00:25.042Z,18.55
2018-02-08T05:02:51.171Z,19.67
2018-02-08T05:05:17.294Z,20.33
2018-02-08T05:07:43.396Z,20.27
2018-02-08T05:10:09.532Z,20.62
2018-02-08T05:12:36.058Z,20.88
2018-02-08T05:15:02.185Z,21.30
2018-02-08T05:17:28.287Z,19.83
2018-02-08T05:19:54.414Z,19.15
2018-02-08T05:22:20.498Z,20.77
2018-02-08T05:24:46.600Z,18.87
2018-02-08T05:27:12.743Z,19.85
2018-02-08T05:29:38.915Z,20.92
2018-02-08T05:32:05.083Z,20.92
2018-02-08T05:34:31.206Z,20.15
2018-02-08T05:36:57.316Z,19.62
2018-02-08T05:39:23.425Z,19.33
2018-02-08T05:41:49.558Z,20.77
2018-02-08T05:44:15.665Z,21.08
2018-02-08T05:46:41.923Z,20.92
2018-02-08T05:49:08.065Z,21.55
2018-02-08T05:51:34.194Z,20.45
2018-02-08T05:54:00.377Z,20.48
2018-02-08T05:56:26.529Z,19.12
2018-02-08T05:58:52.634Z,21.00
2018-02-08T06:01:18.850Z,19.37
2018-02-08T06:03:44.975Z,19.73
2018-02-08T06:06:11.865Z,20.95
2018-02-08T06:08:38.052Z,21.70
2018-02-08T06:11:05.003Z,20.15
2018-02-08T06:13:31.088Z,19.90
2018-02-08T06:15:57.190Z,21.12
2018-02-08T06:18:23.371Z,21.37
2018-02-08T06:20:49.914Z,21.37
2018-02-08T06:23:16.037Z,20.95
2018-02-08T06:25:42.158Z,20.55
2018-02-08T06:28:10.491Z,21.75
2018-02-08T06:30:37.529Z,20.75
2018-02-08T06:33:04.338Z,21.35
2018-02-08T06:35:30.419Z,19.90
2018-02-08T06:37:56.606Z,22.02
2018-02-08T06:40:22.733Z,20.77
2018-02-08T06:42:48.838Z,20.42
2018-02-08T06:45:15.027Z,20.90
2018-02-08T06:47:41.124Z,21.37
2018-02-08T06:50:07.415Z,20.62
2018-02-08T06:52:34.513Z,22.00
2018-02-08T06:55:01.581Z,20.17
2018-02-08T06:57:27.913Z,21.95
2018-02-08T06:59:55.263Z,22.50
2018-02-08T07:02:21.594Z,20.35
2018-02-08T07:04:51.431Z,22.15
2018-02-08T07:07:17.707Z,21.20
2018-02-08T07:09:44.071Z,20.55
2018-02-08T07:12:10.354Z,22.60
2018-02-08T07:14:37.475Z,23.60
2018-02-08T07:17:03.574Z,22.02
2018-02-08T07:19:29.952Z,21.65
2018-02-08T07:22:03.123Z,21.20
2018-02-08T07:24:29.285Z,22.62
2018-02-08T07:26:55.388Z,22.40
2018-02-08T07:29:21.553Z,22.05
2018-02-08T07:31:47.690Z,22.15
2018-02-08T07:34:13.791Z,22.48
2018-02-08T07:36:39.926Z,21.60
2018-02-08T07:41:38.755Z,23.52
2018-02-08T07:44:04.862Z,22.40
2018-02-08T07:46:30.978Z,22.02
2018-02-08T07:48:57.077Z,25.42
2018-02-08T07:51:23.170Z,22.77
2018-02-08T07:53:49.279Z,20.98
2018-02-08T07:58:46.804Z,26.65
2018-02-08T08:01:12.926Z,26.55
2018-02-08T08:03:39.094Z,25.17
2018-02-08T08:06:05.210Z,25.83
2018-02-08T08:08:31.310Z,26.10
2018-02-08T08:10:57.430Z,26.45
2018-02-08T08:13:23.573Z,25.77
2018-02-08T08:15:51.724Z,26.25
2018-02-08T08:18:18.763Z,27.02
2018-02-08T08:20:45.113Z,26.95
2018-02-08T08:23:11.407Z,26.85
2018-02-08T08:25:37.726Z,28.65
2018-02-08T08:28:04.049Z,27.62
2018-02-08T08:30:30.339Z,28.35
2018-02-08T08:32:59.574Z,29.30
2018-02-08T08:35:25.894Z,28.55
2018-02-08T08:37:52.288Z,30.45
2018-02-08T08:40:18.578Z,28.52
2018-02-08T08:42:44.896Z,30.00
2018-02-08T08:45:11.224Z,29.37
2018-02-08T08:47:37.558Z,27.80
2018-02-08T08:50:03.870Z,28.08
2018-02-08T08:52:34.626Z,29.52
2018-02-08T08:55:00.919Z,30.75
2018-02-08T08:57:27.242Z,29.02
2018-02-08T08:59:53.626Z,29.92
2018-02-08T09:02:19.915Z,28.85
2018-02-08T09:04:46.255Z,28.98
2018-02-08T09:07:12.546Z,30.42
2018-02-08T09:09:38.918Z,28.83
2018-02-08T09:12:14.044Z,29.58
2018-02-08T09:14:40.146Z,27.92
2018-02-08T09:17:06.265Z,28.98
2018-02-08T09:19:32.398Z,29.15
2018-02-08T09:21:59.281Z,27.83
2018-02-08T09:24:25.386Z,31.37
2018-02-08T09:26:52.266Z,29.90
2018-02-08T09:29:23.457Z,29.42
2018-02-08T09:31:49.559Z,29.05
2018-02-08T09:34:16.387Z,27.08
2018-02-08T09:36:42.497Z,30.10
2018-02-08T09:39:08.592Z,28.48
2018-02-08T09:41:34.719Z,27.60
2018-02-08T09:44:00.797Z,29.37
2018-02-08T09:46:26.935Z,28.25
2018-02-08T09:48:54.487Z,30.00
2018-02-08T09:51:21.598Z,28.15
2018-02-08T09:53:47.731Z,27.45
2018-02-08T09:56:13.802Z,26.23
2018-02-08T09:58:39.965Z,26.67
2018-02-08T10:01:06.207Z,29.12
2018-02-08T10:03:32.521Z,28.77
2018-02-08T10:05:58.825Z,28.27
2018-02-08T10:08:28.923Z,28.08
2018-02-08T10:10:55.194Z,28.12
2018-02-08T10:13:22.267Z,27.33
2018-02-08T10:15:48.591Z,26.62
2018-02-08T10:18:15.450Z,27.05
2018-02-08T10:20:41.603Z,27.40
2018-02-08T10:23:07.897Z,28.05
2018-02-08T10:25:38.842Z,28.25
2018-02-08T10:28:05.271Z,26.33
2018-02-08T10:30:31.579Z,24.55
2018-02-08T10:32:59.048Z,27.25
2018-02-08T10:35:25.183Z,26.60
2018-02-08T10:37:51.291Z,27.58
2018-02-08T10:40:17.416Z,30.40
2018-02-08T10:42:43.599Z,27.80
2018-02-08T10:45:10.836Z,30.12
2018-02-08T10:47:37.002Z,29.05
2018-02-08T10:50:05.323Z,26.50
2018-02-08T10:52:31.642Z,26.90
2018-02-08T10:54:58.020Z,26.70
2018-02-08T10:57:24.345Z,28.27
2018-02-08T10:59:50.689Z,28.58
2018-02-08T11:02:17.069Z,28.20
2018-02-08T11:04:48.040Z,26.87
2018-02-08T11:07:15.334Z,27.92
2018-02-08T11:09:41.743Z,25.40
2018-02-08T11:12:08.164Z,26.83
2018-02-08T11:14:34.591Z,25.60
2018-02-08T11:17:01.029Z,25.98
2018-02-08T11:19:27.489Z,25.58
2018-02-08T11:21:55.737Z,26.30
2018-02-08T11:24:22.039Z,24.63
2018-02-08T11:26:48.374Z,27.62
2018-02-08T11:29:14.688Z,28.70
2018-02-08T11:31:41.242Z,25.75
2018-02-08T11:34:08.521Z,26.62
2018-02-08T11:36:35.564Z,27.73
2018-02-08T11:39:01.897Z,30.23
2018-02-08T11:41:31.582Z,27.52
2018-02-08T11:44:00.778Z,27.85
2018-02-08T11:46:27.292Z,29.25
2018-02-08T11:48:53.726Z,27.83
2018-02-08T11:51:20.188Z,26.40
2018-02-08T11:53:46.613Z,27.92
2018-02-08T11:56:12.975Z,25.95
2018-02-08T11:58:44.423Z,28.83
2018-02-08T12:01:10.844Z,28.10
2018-02-08T12:03:38.402Z,26.80
2018-02-08T12:06:05.544Z,25.02
2018-02-08T12:08:31.710Z,25.45
2018-02-08T12:10:57.936Z,27.00
2018-02-08T12:16:06.518Z,25.02
2018-02-08T12:18:36.373Z,24.83
2018-02-08T12:21:02.991Z,23.05
2018-02-08T12:26:05.794Z,19.48
2018-02-08T12:28:32.714Z,15.93
2018-02-08T12:31:01.237Z,18.58
2018-02-08T12:33:27.679Z,16.17
2018-02-08T12:35:53.899Z,17.10
2018-02-08T12:38:20.098Z,18.50
2018-02-08T12:40:49.650Z,18.55
2018-02-08T12:43:24.075Z,19.95
2018-02-08T12:45:56.180Z,20.90
2018-02-08T12:48:42.096Z,20.33
2018-02-08T12:51:08.438Z,19.67
2018-02-08T12:53:34.886Z,20.12
2018-02-08T12:56:01.233Z,19.83
2018-02-08T12:58:34.735Z,21.62
2018-02-08T13:01:01.684Z,20.80
2018-02-08T13:03:36.994Z,22.50
2018-02-08T13:06:03.358Z,21.02
2018-02-08T13:08:29.717Z,20.48
2018-02-08T13:11:03.807Z,21.05
2018-02-08T13:13:30.999Z,22.20
2018-02-08T13:15:57.419Z,20.50
2018-02-08T13:18:25.338Z,21.62
2018-02-08T13:20:52.689Z,20.00
2018-02-08T13:23:19.023Z,19.50
2018-02-08T13:25:54.025Z,20.12
2018-02-08T13:28:21.346Z,19.35
2018-02-08T13:30:47.700Z,19.45
2018-02-08T13:33:14.116Z,20.55
2018-02-08T13:35:40.477Z,21.90
2018-02-08T13:38:10.661Z,21.77
2018-02-08T13:40:40.254Z,21.67
2018-02-08T13:43:07.683Z,22.87
2018-02-08T13:45:34.448Z,22.67
2018-02-08T13:48:17.556Z,25.90
2018-02-08T13:54:08.683Z,22.15
2018-02-08T13:59:52.799Z,24.42
2018-02-08T14:02:27.118Z,25.88
2018-02-08T14:04:54.032Z,24.70
2018-02-08T14:07:20.168Z,22.25
2018-02-08T14:09:46.313Z,22.13
2018-02-08T14:12:12.512Z,24.67
2018-02-08T14:14:38.673Z,24.33
2018-02-08T14:17:11.452Z,22.58
2018-02-08T14:19:37.627Z,21.33
2018-02-08T14:22:03.861Z,22.67
2018-02-08T14:24:30.149Z,22.20
2018-02-08T14:26:56.317Z,21.58
2018-02-08T14:29:22.570Z,22.25
2018-02-08T14:31:48.875Z,22.10
2018-02-08T14:34:18.831Z,21.30
2018-02-08T14:36:47.721Z,20.35
2018-02-08T14:39:15.042Z,18.77
2018-02-08T14:41:41.923Z,21.00
2018-02-08T14:44:08.129Z,20.83
2018-02-08T14:49:07.027Z,19.73
2018-02-08T14:51:37.061Z,19.85
2018-02-08T14:54:03.572Z,20.02
2018-02-08T14:56:29.764Z,18.00
2018-02-08T14:58:56.913Z,17.65
2018-02-08T15:01:25.443Z,18.95
2018-02-08T15:03:52.348Z,17.37
2018-02-08T15:06:22.035Z,19.42
2018-02-08T15:08:48.174Z,18.95
2018-02-08T15:11:14.462Z,17.45
2018-02-08T15:13:40.618Z,17.48
2018-02-08T15:16:18.123Z,17.75
2018-02-08T15:18:44.294Z,18.35
2018-02-08T15:21:11.295Z,18.77
2018-02-08T15:23:37.426Z,19.77
2018-02-08T15:26:03.614Z,16.87
2018-02-08T15:28:33.454Z,18.50
2018-02-08T15:30:59.634Z,18.37
2018-02-08T15:33:25.759Z,17.67
2018-02-08T15:35:52.650Z,19.00
2018-02-08T15:38:19.653Z,18.48
2018-02-08T15:40:46.076Z,19.55
2018-02-08T15:43:12.387Z,17.77
2018-02-08T15:45:43.672Z,17.77
2018-02-08T15:48:09.851Z,18.20
2018-02-08T15:50:36.011Z,18.67
2018-02-08T15:53:02.180Z,18.55
2018-02-08T15:55:29.055Z,18.10
2018-02-08T15:57:55.195Z,19.45
2018-02-08T16:00:21.378Z,19.83
2018-02-08T16:02:47.642Z,19.05
2018-02-08T16:05:17.252Z,18.77
2018-02-08T16:07:43.449Z,19.67
2018-02-08T16:10:10.520Z,19.80
2018-02-08T16:12:36.754Z,18.80
2018-02-08T16:15:02.954Z,19.58
2018-02-08T16:17:29.145Z,18.95
2018-02-08T16:19:55.353Z,19.02
2018-02-08T16:22:25.645Z,18.83
2018-02-08T16:24:51.779Z,19.10
2018-02-08T16:27:21.890Z,21.00
2018-02-08T16:29:48.190Z,20.50
2018-02-08T16:32:14.793Z,20.60
2018-02-08T16:34:41.250Z,22.45
2018-02-08T16:37:10.831Z,21.62
2018-02-08T16:39:37.181Z,21.10
2018-02-08T16:42:03.473Z,22.13
2018-02-08T16:44:29.852Z,22.58
2018-02-08T16:46:56.078Z,22.27
2018-02-08T16:49:22.255Z,23.85
2018-02-08T16:51:49.303Z,24.10
2018-02-08T16:54:18.838Z,25.02
2018-02-08T16:56:45.063Z,24.52
2018-02-08T16:59:12.015Z,23.85
2018-02-08T17:01:38.215Z,25.08
2018-02-08T17:04:04.601Z,24.98
2018-02-08T17:06:30.880Z,27.50
2018-02-08T17:08:57.305Z,26.10
2018-02-08T17:11:24.797Z,24.92
2018-02-08T17:13:51.018Z,26.62
2018-02-08T17:16:17.335Z,26.87
2018-02-08T17:18:43.559Z,25.00
2018-02-08T17:21:09.884Z,25.75
2018-02-08T17:23:36.139Z,27.08
2018-02-08T17:26:02.374Z,28.90
2018-02-08T17:28:33.476Z,27.27
2018-02-08T17:30:59.997Z,26.75
2018-02-08T17:33:27.018Z,27.85
2018-02-08T17:35:54.118Z,27.05
2018-02-08T17:38:20.277Z,28.35
2018-02-08T17:40:46.434Z,28.15
2018-02-08T17:43:12.570Z,26.90
2018-02-08T17:45:38.780Z,28.30
2018-02-08T17:48:09.093Z,26.27
2018-02-08T17:50:35.303Z,25.52
2018-02-08T17:53:01.551Z,26.12
2018-02-08T17:55:27.713Z,27.35
2018-02-08T17:57:53.974Z,28.55
2018-02-08T18:00:20.094Z,26.87
2018-02-08T18:02:46.603Z,28.85
2018-02-08T18:05:17.405Z,28.75
2018-02-08T18:07:44.766Z,27.52
2018-02-08T18:10:12.208Z,26.45
2018-02-08T18:12:38.595Z,27.95
2018-02-08T18:15:04.918Z,27.65
2018-02-08T18:17:31.282Z,27.95
2018-02-08T18:19:57.597Z,27.20
2018-02-08T18:22:24.595Z,27.02
2018-02-08T18:24:58.058Z,26.85
2018-02-08T18:27:25.296Z,28.30
2018-02-08T18:29:53.857Z,29.52
2018-02-08T18:32:20.068Z,28.08
2018-02-08T18:34:47.334Z,27.17
2018-02-08T18:37:14.432Z,29.45
2018-02-08T18:39:41.111Z,28.90
2018-02-08T18:42:07.333Z,31.30
2018-02-08T18:44:50.175Z,27.87
2018-02-08T18:47:18.928Z,27.90
2018-02-08T18:49:45.313Z,30.15
2018-02-08T18:52:11.796Z,30.40
2018-02-08T18:54:38.326Z,28.30
2018-02-08T18:57:04.887Z,29.17
2018-02-08T18:59:32.070Z,28.10
2018-02-08T19:01:58.309Z,28.98
2018-02-08T19:04:24.575Z,28.80
2018-02-08T19:06:50.809Z,29.63
2018-02-08T19:09:18.052Z,27.67
2018-02-08T19:11:44.374Z,30.52
2018-02-08T19:14:10.558Z,30.40
2018-02-08T19:16:36.780Z,33.55
2018-02-08T19:19:03.091Z,30.58
2018-02-08T19:21:30.723Z,32.83
2018-02-08T19:23:57.978Z,32.45
2018-02-08T19:26:24.114Z,31.45
2018-02-08T19:28:50.243Z,30.58
2018-02-08T19:31:16.445Z,32.95
2018-02-08T19:33:42.596Z,33.15
2018-02-08T19:36:08.840Z,33.78
2018-02-08T19:38:35.183Z,31.10
2018-02-08T19:41:01.569Z,31.85
2018-02-08T19:43:28.538Z,30.05
2018-02-08T19:45:56.600Z,30.50
2018-02-08T19:48:23.548Z,32.38
2018-02-08T19:50:50.500Z,32.28
2018-02-08T19:53:18.782Z,32.30
2018-02-08T19:55:44.912Z,34.10
2018-02-08T19:58:11.105Z,32.42
2018-02-08T20:00:37.263Z,31.87
2018-02-08T20:03:03.606Z,33.65
2018-02-08T20:05:30.014Z,32.22
2018-02-08T20:07:59.340Z,32.05
2018-02-08T20:10:25.548Z,32.38
2018-02-08T20:12:51.785Z,31.85
2018-02-08T20:15:18.029Z,33.60
2018-02-08T20:17:44.192Z,32.13
2018-02-08T20:20:10.520Z,33.20
2018-02-08T20:22:36.776Z,35.75
2018-02-08T20:25:05.162Z,38.08
2018-02-08T20:27:32.030Z,35.90
2018-02-08T20:29:59.384Z,31.67
2018-02-08T20:32:25.635Z,36.63
2018-02-08T20:34:51.951Z,33.78
2018-02-08T20:42:20.911Z,33.72
2018-02-08T20:44:47.130Z,33.55
2018-02-08T20:47:13.447Z,37.47
2018-02-08T20:49:45.773Z,35.70
2018-02-08T20:52:13.171Z,39.45
2018-02-08T20:54:39.663Z,36.70
2018-02-08T20:57:06.102Z,38.10
2018-02-08T20:59:32.451Z,37.70
2018-02-08T21:01:58.771Z,36.88
2018-02-08T21:04:25.133Z,38.33
2018-02-08T21:06:51.454Z,38.83
2018-02-08T21:09:18.021Z,40.03
2018-02-08T21:11:44.495Z,41.00
2018-02-08T21:14:11.762Z,42.60
2018-02-08T21:16:38.203Z,40.80
2018-02-08T21:19:04.515Z,43.67
2018-02-08T21:21:30.875Z,43.90
2018-02-08T21:23:57.332Z,43.05
2018-02-08T21:26:23.767Z,45.42
2018-02-08T21:28:51.018Z,43.97
2018-02-08T21:31:19.370Z,40.85
2018-02-08T21:33:45.729Z,40.40
2018-02-08T21:36:12.178Z,41.53
2018-02-08T21:38:38.563Z,41.78
2018-02-08T21:41:04.910Z,41.72
2018-02-08T21:43:31.298Z,40.53
2018-02-08T21:45:57.838Z,39.05
2018-02-08T21:48:25.222Z,42.75
2018-02-08T21:50:52.302Z,41.60
2018-02-08T21:53:19.468Z,36.15
2018-02-08T21:55:45.862Z,38.45
2018-02-08T21:58:12.193Z,39.80
2018-02-08T22:00:38.534Z,38.00
2018-02-08T22:03:04.852Z,35.90
2018-02-08T22:05:31.283Z,36.25
2018-02-08T22:07:58.755Z,36.10
2018-02-08T22:10:25.140Z,37.53
2018-02-08T22:12:51.445Z,38.10
2018-02-08T22:15:17.822Z,35.17
2018-02-08T22:17:44.963Z,37.47
2018-02-08T22:20:11.332Z,36.72
2018-02-08T22:22:37.643Z,37.00
2018-02-08T22:25:04.134Z,34.70
2018-02-08T22:27:32.530Z,33.63
2018-02-08T22:29:58.859Z,35.58
2018-02-08T22:32:25.171Z,35.20
2018-02-08T22:34:51.839Z,35.80
2018-02-08T22:37:18.176Z,35.20
2018-02-08T22:39:44.626Z,35.75
2018-02-08T22:42:11.026Z,36.65
2018-02-08T22:44:40.427Z,35.28
2018-02-08T22:47:07.703Z,35.30
2018-02-08T22:49:34.066Z,34.75
2018-02-08T22:52:01.119Z,37.03
2018-02-08T22:54:27.578Z,37.03
2018-02-08T22:56:54.034Z,34.20
2018-02-08T22:59:20.316Z,37.25
2018-02-08T23:01:47.168Z,34.40
2018-02-08T23:04:13.541Z,35.17
2018-02-08T23:06:40.674Z,38.45
2018-02-08T23:09:07.126Z,35.67
2018-02-08T23:11:33.846Z,37.05
2018-02-08T23:14:00.201Z,35.20
2018-02-08T23:16:26.521Z,35.65
2018-02-08T23:18:52.952Z,34.67
2018-02-08T23:21:19.312Z,32.88
2018-02-08T23:23:45.733Z,34.55
2018-02-08T23:26:12.117Z,31.67
2018-02-08T23:28:38.767Z,30.90
2018-02-08T23:31:05.157Z,31.58
2018-02-08T23:33:31.662Z,30.33
2018-02-08T23:35:57.999Z,32.60
2018-02-08T23:38:24.427Z,29.77
2018-02-08T23:40:50.824Z,30.20
2018-02-08T23:43:17.266Z,30.90
2018-02-08T23:45:44.518Z,32.78
2018-02-08T23:48:11.081Z,29.30
2018-02-08T23:50:38.139Z,31.25
2018-02-08T23:53:04.593Z,30.85
2018-02-08T23:55:30.997Z,29.33
2018-02-08T23:57:57.435Z,30.00
